LIME/BGY METAR and TAF weather

Enter ICAO airport designator
Station Type Date Time Source
LIME METAR 2022/12/04 05:50 UTC NOAA

LIME 040550Z VRB02KT 8000 -RA BKN050 07/07 Q1011 NOSIG


Station Type Date Time Source
LIME Decoded METAR 2022/12/04 05:50 UTC NOAA

Bergamo / Orio Al Serio, Italy (LIME) 45-40N 009-42E 237M
Dec 04, 2022 - 12:50 AM EST / 2022.12.04 0550 UTC
Wind: Variable at 2 MPH (2 KT):0
Visibility: 4 mile(s):0
Sky conditions: mostly cloudy
Weather: light rain
Temperature: 44 F (7 C)
Dew Point: 44 F (7 C)
Relative Humidity: 100%
Pressure (altimeter): 29.85 in. Hg (1011 hPa)
ob: LIME 040550Z VRB02KT 8000 -RA BKN050 07/07 Q1011 NOSIG
cycle: 6

Station Type Date Time Source
LIME TAF 2022/12/04 06:21 UTC NOAA

TAF LIME 040500Z 0406/0506 VRB05KT 4000 RA SCT007 BKN030
BECMG 0410/0412 6000 NSW
BECMG 0419/0421 RA

Example: see airport list